Anza Borrego Desert Research Center, California Weather observations

Data are for 10 minute period ending at time listed.
 Day   Time   Solar   Ave.   Ave.  Ave.  Vector  Max.   Baro.   Total    
  of    of     Rad.   Air    Rel.  Wind   Wind   Wind  Press.  Precip.   
Year   Day            Temp.  Hum.  Speed  Dir.   Gust                    
2014   (PST)  Kw/m2    F      %     mph   deg.    mph    mb.     in.     
-------------------------------------------------------------------------
 265    7:40   0.36   87.7    25    2.8    66     4.2   502.0    0.00 
 265    7:50   0.39   88.2    25    3.7    82     6.1   502.0    0.00 
 265    8:00   0.43   88.2    25    4.1    81     5.9   502.0    0.00 
 265    8:10   0.46   89.7    23    3.6   135     7.2   502.0    0.00 
 265    8:20   0.49   88.7    25    5.4    68     7.2   502.0    0.00 
 265    8:30   0.53   88.9    24    5.0   105     8.3   502.1    0.00 
 265    8:40   0.56   88.6    24    5.8   132     8.1   502.1    0.00 
 265    8:50   0.59   89.0    24    4.9   117     7.2   502.1    0.00 
 265    9:00   0.62   89.0    24    5.1   136     8.1   502.1    0.00 
 265    9:10   0.64   89.3    24    4.5   102     7.5   502.1    0.00 
 265    9:20   0.67   90.2    23    3.7    95     6.3   502.1    0.00 
 265    9:30   0.70   90.9    23    4.0    76     6.7   502.1    0.00 
 265    9:40   0.72   91.8    22    3.1    56     6.3   502.1    0.00 
 265    9:50   0.74   92.3    21    3.2   111     7.2   502.2    0.00 
 265   10:00   0.76   92.9    21    2.8    72     6.1   502.3    0.00 
 265   10:10   0.78   93.1    21    3.4    60     6.6   502.3    0.00 
 265   10:20   0.80   93.9    20    2.9    73     7.4   502.3    0.00 
 265   10:30   0.81   93.8    20    5.4    86     9.1   502.3    0.00 
 265   10:40   0.82   93.7    20    4.2   108     9.9   502.3    0.00 
 265   10:50   0.83   95.1    19    4.3    91     7.7   502.3    0.00 
 265   11:00   0.84   95.1    19    1.3    57     3.7   502.3    0.00 
 265   11:10   0.85   95.8    19    5.1    95     8.9   502.3    0.00 
 265   11:20   0.85   96.2    19    4.1   113     9.6   502.3    0.00 
 265   11:30   0.86   95.9    19    3.5    43     8.4   502.3    0.00 
 265   11:40   0.86   96.1    18    6.9   113    12.1   502.3    0.00 
 265   11:50   0.86   95.9    18    2.1    95     5.4   502.3    0.00 
 265   12:00   0.86   96.3    18    3.3    98     8.8   502.3    0.00 
 265   12:10   0.84   96.6    17    3.6   103     9.8   502.3    0.00 
 265   12:20   0.84   96.6    17    2.6    77     5.9   502.3    0.00 
 265   12:30   0.84   97.2    16    4.1   103     9.0   502.3    0.00 
 265   12:40   0.80   97.1    16    6.0   106    12.9   918.1    0.00 
 265   12:50   0.81   97.4    16    6.4   125    12.2   981.1    0.00 
 265   13:00   0.80   98.0    16    6.2   110    12.6   981.0    0.00 
 265   13:10   0.79   98.0    16    8.0   144    12.5   980.9    0.00 
 265   13:20   0.77   98.4    16    5.9   139    11.5   980.8    0.00 
 265   13:30   0.75   98.2    16    3.2   122     8.0   980.6    0.00 
 265   13:40   0.73   99.5    15    3.1    53     9.8   980.4    0.00 
 265   13:50   0.71  100.0    15    6.8   123    12.3   980.2    0.00 
 265   14:00   0.69   98.7    15    6.1    77    10.2   980.1    0.00 
 265   14:10   0.66   98.9    15    5.3    68     9.6   980.0    0.00 
 265   14:20   0.64   99.3    15    5.9   110    10.9   979.9    0.00 
 265   14:30   0.61  100.1    14    3.9   285    10.7   979.8    0.00 
 265   14:40   0.58  100.1    14    7.8   121    12.8   979.7    0.00 
 265   14:50   0.55   99.6    15    6.1    92    12.3   979.6    0.00 
 265   15:00   0.52   99.9    15    6.3   101    17.6   979.5    0.00 
 265   15:10   0.49   99.6    15    5.8    72    10.7   979.4    0.00 
 265   15:20   0.45   99.2    16    7.4    81    11.0   979.3    0.00 
 265   15:30   0.42   99.6    15    3.6    62     8.6   979.2    0.00 
 265   15:40   0.39   98.9    16    8.4   115    12.6   979.2    0.00 
 265   15:50   0.35   98.4    16    7.0    94    13.7   979.2    0.00 
 265   16:00   0.32   98.7    16    4.4   114     8.3   979.2    0.00 
 265   16:10   0.28   98.8    16    7.1   123    10.7   979.2    0.00 
 265   16:20   0.24   98.8    17    3.3   130     7.2   979.3    0.00 
 265   16:30   0.21   99.0    16    6.6   104    10.3   979.3    0.00 
 265   16:40   0.17   97.9    17    6.6   123    10.4   979.2    0.00 
 265   16:50   0.07   97.2    18    6.2   124    10.7   977.8    0.00 
 265   17:00   0.02   95.7    19    6.4   133     8.9   628.6    0.00 
 265   17:10   0.01   95.2    20    6.5   129     9.3   502.3    0.00 
 265   17:20   0.01   94.8    21    5.2   129     8.7   502.3    0.00 
 265   17:30   0.01   94.4    22    5.4   137     7.7   502.2    0.00 
 265   17:40   0.00   93.9    22    5.8   146     8.2   502.1    0.00 
 265   17:50   0.00   93.6    23    5.9   146     8.8   502.1    0.00 
 265   18:00   0.00   93.2    23    5.5   153     7.5   502.1    0.00 
 265   18:10   0.00   92.0    24    4.4   180     5.6   502.1    0.00 
 265   18:20   0.00   90.9    25    3.8   180     5.0   502.1    0.00 
 265   18:30   0.00   89.6    26    2.8   182     4.5   502.1    0.00 
 265   18:40   0.00   90.6    25    2.7   228     4.4   502.1    0.00 
 265   18:50   0.00   89.6    25    5.5   230     6.8   502.1    0.00 
 265   19:00   0.00   89.0    24    5.9   234     8.1   502.1    0.00 
 265   19:10   0.00   90.2    23    6.2   245     9.5   502.0    0.00 
 265   19:20   0.00   89.9    22    6.7   236     9.6   502.0    0.00 
 265   19:30   0.00   90.6    20    5.5   251     8.5   502.0    0.00 
 265   19:40   0.00   90.1    19    5.9   254    10.0   502.0    0.00 
 265   19:50   0.00   91.2    18    5.1   244    10.2   502.0    0.00 
 265   20:00   0.00   91.2    17    5.4   243     7.8   502.0    0.00 
 265   20:10   0.00   90.2    17    2.2   294     5.4   502.0    0.00 
 265   20:20   0.00   89.3    20    2.0   133     4.4   502.0    0.00 
 265   20:30   0.00   88.8    18    3.2   215     4.4   502.0    0.00 
 265   20:40   0.00   89.5    17    2.4   245     4.7   502.0    0.00 
 265   20:50   0.00   87.3    19    2.5   280     4.5   502.0    0.00 
 265   21:00   0.00   87.2    20    1.3   303     5.8   502.0    0.00 
 265   21:10   0.00   87.1    19    3.9   253     5.6   502.0    0.00 
 265   21:20   0.00   85.9    19    4.4   259     6.4   502.0    0.00 
 265   21:30   0.00   85.2    19    4.1   286     6.9   502.0    0.00 
 265   21:40   0.00   84.2    19    3.9   267     5.2   502.0    0.00 
 265   21:50   0.00   84.2    19    3.8   270     6.1   502.0    0.00 
 265   22:00   0.00   84.8    18    3.9   266     6.1   502.0    0.00 
 265   22:10   0.00   86.1    17    4.3   268     8.7   502.0    0.00 
 265   22:20   0.00   84.9    17    4.0   265     5.6   502.0    0.00 
 265   22:30   0.00   85.0    17    2.2   281     4.5   502.0    0.00 
 265   22:40   0.00   85.7    16    2.5   282     5.2   502.0    0.00 
 265   22:50   0.00   85.5    16    3.4   260     5.3   502.0    0.00 
 265   23:00   0.00   85.9    16    2.1   290     4.4   502.0    0.00 
 265   23:10   0.00   84.7    17    1.1   298     3.0   502.0    0.00 
 265   23:20   0.00   83.8    18    1.0   343     2.4   502.0    0.00 
 265   23:30   0.00   82.5    18    1.8   257     3.3   502.0    0.00 
 265   23:40   0.00   84.0    20    4.4   248     6.4   502.0    0.00 
 265   23:50   0.00   84.7    22    4.6   214     7.0   502.0    0.00 
 266    0:00   0.00   84.8    22    4.6   200     6.1   502.0    0.00 
 266    0:10   0.00   84.1    22    4.8   196     6.9   502.0    0.00 
 266    0:20   0.00   84.4    19    4.6   225     7.4   502.0    0.00 
 266    0:30   0.00   81.7    20    5.4   246     7.5   502.0    0.00 
 266    0:40   0.00   81.2    20    5.2   250     7.1   502.0    0.00 
 266    0:50   0.00   80.4    20    4.1   264     6.1   502.0    0.00 
 266    1:00   0.00   80.0    20    4.0   249     5.0   501.9    0.00 
 266    1:10   0.00   81.2    20    2.9   254     6.1   501.9    0.00 
 266    1:20   0.00   80.2    20    2.0   292     4.1   501.9    0.00 
 266    1:30   0.00   79.5    21    1.1   344     3.1   501.8    0.00 
 266    1:40   0.00   78.8    23    0.9   340     3.2   501.8    0.00 
 266    1:50   0.00   78.3    23    1.8   249     3.1   501.8    0.00 
 266    2:00   0.00   78.9    22    2.2   216     3.7   501.8    0.00 
 266    2:10   0.00   77.5    23    1.9   158     3.4   501.8    0.00 
 266    2:20   0.00   78.2    24    4.2   187     7.0   501.8    0.00 
 266    2:30   0.00   78.4    24    4.5   224     5.7   501.8    0.00 
 266    2:40   0.00   76.8    24    3.1   234     5.3   501.8    0.00 
 266    2:50   0.00   78.6    22    2.6   223     4.0   501.8    0.00 
 266    3:00   0.00   77.5    23    2.8   238     4.2   501.8    0.00 
 266    3:10   0.00   74.4    25    1.7   263     4.1   501.8    0.00 
 266    3:20   0.00   74.6    25    2.4   265     4.4   501.8    0.00 
 266    3:30   0.00   75.8    24    3.3   316     4.7   501.8    0.00 
 266    3:40   0.00   77.2    24    2.3   308     3.5   501.8    0.00 
 266    3:50   0.00   74.5    26    2.6   254     3.7   501.8    0.00 
 266    4:00   0.00   75.5    25    3.9   242     5.2   501.8    0.00 
 266    4:10   0.00   76.3    24    4.1   236     4.8   501.8    0.00 
 266    4:20   0.00   75.7    24    4.2   259     5.4   501.8    0.00 
 266    4:30   0.00   76.0    24    4.0   252     5.7   501.8    0.00 
 266    4:40   0.00   77.2    23    2.1   238     3.5   501.8    0.00 
 266    4:50   0.00   76.2    25    2.3   122     4.0   501.8    0.00 
 266    5:00   0.00   77.3    25    1.7   120     3.4   501.8    0.00 
 266    5:10   0.00   77.0    25    0.9   120     1.8   501.8    0.00 
 266    5:20   0.00   76.9    25    0.6   128     1.4   501.8    0.00 
 266    5:30   0.00   75.3    26    2.3   229     4.8   501.8    0.00 
 266    5:40   0.00   74.2    27    2.5   226     3.9   501.8    0.00 
 266    5:50   0.01   74.9    26    3.9   238     5.1   501.8    0.00 
 266    6:00   0.03   76.7    25    3.2   257     5.0   501.8    0.00 
 266    6:10   0.06   77.1    25    2.4   290     3.7   501.8    0.00 
 266    6:20   0.09   80.8    23    1.1   321     2.7   501.8    0.00 
 266    6:30   0.12   83.4    21    1.2   260     2.5   501.8    0.00 
 266    6:40   0.15   84.2    21    3.0   310     4.5   501.8    0.00 
 266    6:50   0.18   84.3    21    3.0   312     5.0   501.8    0.00 
 266    7:00   0.22   86.6    20    1.7    40     2.8   501.9    0.00 
 266    7:10   0.25   87.3    20    1.0    33     2.2   502.0    0.00 
 266    7:20   0.29   88.0    19    1.4   357     3.1   502.0    0.00 
 266    7:30   0.32   89.6    18    0.8    11     2.0   502.0    0.00 

Return to Anza Borrego Desert Research Center graphs page.


Western Regional Climate Center,wrcc@dri.edu